Time;durP1;ratioP1;P1;durP2;ratioP2;P2;SDS_P1;SDS_P2;PMS_P1;PMS_P2;Temp;Humidity;BMP_temperature;BMP_pressure;BME280_temperature;BME280_humidity;BME280_pressure;Samples;Min_cycle;Max_cycle;Signal;HPM_P1;HPM_P2
2022/05/06 00:02:21;;;;;;;0.52;0.52;;;13.10;99.90;;;;;;5186726;28;20037;-80
2022/05/06 00:04:56;;;;;;;0.50;0.50;;;13.00;99.90;;;;;;5160061;28;20050;-77
2022/05/06 00:07:27;;;;;;;0.80;0.80;;;13.00;99.90;;;;;;5158847;28;20026;-78
2022/05/06 00:10:03;;;;;;;0.77;0.77;;;13.00;99.90;;;;;;5148515;28;20024;-78
2022/05/06 00:12:37;;;;;;;0.75;0.75;;;13.00;99.90;;;;;;5166551;28;20026;-79
2022/05/06 00:15:14;;;;;;;0.80;0.80;;;12.90;99.90;;;;;;5149692;28;20555;-78
2022/05/06 00:17:45;;;;;;;1.40;1.40;;;12.80;99.90;;;;;;5133722;28;20053;-79
2022/05/06 00:20:17;;;;;;;0.73;0.73;;;12.70;99.90;;;;;;5165865;28;20041;-77
2022/05/06 00:22:53;;;;;;;0.70;0.70;;;12.70;99.90;;;;;;5129901;28;20040;-77
2022/05/06 00:25:27;;;;;;;0.77;0.77;;;12.70;99.90;;;;;;5147933;28;20038;-78
2022/05/06 00:28:02;;;;;;;0.82;0.82;;;12.70;99.90;;;;;;5188156;28;20037;-78
2022/05/06 00:30:35;;;;;;;0.80;0.80;;;12.70;99.90;;;;;;5153629;28;20022;-78
2022/05/06 00:33:09;;;;;;;0.93;0.93;;;12.70;99.90;;;;;;5149139;28;20423;-77
2022/05/06 00:36:04;;;;;;;1.45;1.45;;;12.70;99.90;;;;;;5181053;28;20068;-77
2022/05/06 00:38:36;;;;;;;0.63;0.63;;;12.70;99.90;;;;;;5143871;28;20050;-75
2022/05/06 00:41:09;;;;;;;0.70;0.70;;;12.70;99.90;;;;;;5143877;28;20031;-77
2022/05/06 00:43:41;;;;;;;0.70;0.70;;;12.70;99.90;;;;;;5111071;28;20042;-76
2022/05/06 00:46:16;;;;;;;0.57;0.57;;;12.70;99.90;;;;;;5127550;28;20045;-79
2022/05/06 00:48:55;;;;;;;0.57;0.57;;;12.70;99.90;;;;;;5147510;28;20041;-77
2022/05/06 00:51:29;;;;;;;0.60;0.60;;;12.80;99.90;;;;;;5129484;28;20363;-76
2022/05/06 00:54:00;;;;;;;0.75;0.75;;;12.90;99.90;;;;;;5125643;28;20451;-79
2022/05/06 00:56:32;;;;;;;1.08;0.95;;;13.00;99.90;;;;;;5110233;28;20054;-76
2022/05/06 00:59:03;;;;;;;1.10;1.10;;;13.00;99.90;;;;;;5111521;28;20034;-78
2022/05/06 01:01:36;;;;;;;1.15;1.15;;;13.10;99.90;;;;;;5126311;28;20444;-78
2022/05/06 01:04:10;;;;;;;0.70;0.70;;;13.10;99.90;;;;;;5126164;28;20034;-78
2022/05/06 01:06:46;;;;;;;0.80;0.80;;;13.10;99.90;;;;;;5102229;28;20038;-77
2022/05/06 01:09:20;;;;;;;0.63;0.63;;;13.10;99.90;;;;;;5127262;28;20037;-77
2022/05/06 01:11:52;;;;;;;0.90;0.90;;;13.10;99.90;;;;;;5142812;28;20049;-77
2022/05/06 01:14:33;;;;;;;3.30;1.60;;;13.20;99.90;;;;;;5143403;28;20029;-78
2022/05/06 01:17:09;;;;;;;0.77;0.52;;;13.20;99.90;;;;;;5132450;28;20038;-79
2022/05/06 01:19:43;;;;;;;0.70;0.70;;;13.20;99.90;;;;;;5163421;28;20024;-78
2022/05/06 01:22:18;;;;;;;0.85;0.85;;;13.30;99.90;;;;;;5164022;28;20320;-79
2022/05/06 01:24:55;;;;;;;0.70;0.70;;;13.20;99.90;;;;;;5148354;28;20056;-77
2022/05/06 01:27:32;;;;;;;1.05;1.05;;;13.20;99.90;;;;;;5163271;28;20034;-78
2022/05/06 01:30:09;;;;;;;0.88;0.88;;;13.10;99.90;;;;;;5164915;28;20040;-78
2022/05/06 01:32:46;;;;;;;0.65;0.65;;;13.10;99.90;;;;;;5144259;28;20038;-79
2022/05/06 01:35:22;;;;;;;0.68;0.68;;;13.10;99.90;;;;;;5129238;28;20022;-80
2022/05/06 01:37:59;;;;;;;0.60;0.60;;;13.00;99.90;;;;;;5165351;28;20048;-77
2022/05/06 01:40:40;;;;;;;0.93;0.93;;;13.00;99.90;;;;;;5165318;28;20026;-78
2022/05/06 01:43:15;;;;;;;0.75;0.75;;;13.00;99.90;;;;;;5166223;28;20106;-79
2022/05/06 01:45:54;;;;;;;0.68;0.68;;;12.90;99.90;;;;;;5168233;28;20022;-78
2022/05/06 01:48:31;;;;;;;0.70;0.70;;;12.90;99.90;;;;;;5171735;28;20018;-80
2022/05/06 01:51:05;;;;;;;0.88;0.88;;;12.80;99.90;;;;;;5144158;28;20594;-79
2022/05/06 01:53:39;;;;;;;0.75;0.75;;;12.70;99.90;;;;;;5146783;28;20038;-79
2022/05/06 01:56:12;;;;;;;0.70;0.70;;;12.60;99.90;;;;;;5136553;28;20033;-77
2022/05/06 01:58:44;;;;;;;0.75;0.75;;;12.50;99.90;;;;;;5139844;28;20061;-78
2022/05/06 02:01:16;;;;;;;1.00;1.00;;;12.50;99.90;;;;;;5155732;28;20141;-77
2022/05/06 02:06:37;;;;;;;1.83;1.73;;;12.40;99.90;;;;;;5135585;28;20046;-77
2022/05/06 02:09:11;;;;;;;1.00;1.00;;;12.40;99.90;;;;;;5151214;28;20212;-79
2022/05/06 02:11:43;;;;;;;0.85;0.85;;;12.30;99.90;;;;;;5149937;28;20044;-78
2022/05/06 02:14:16;;;;;;;0.80;0.80;;;12.30;99.90;;;;;;5150908;28;20034;-78
2022/05/06 02:16:48;;;;;;;1.00;1.00;;;12.20;99.90;;;;;;5167336;28;20025;-76
2022/05/06 02:19:20;;;;;;;0.82;0.82;;;12.20;99.90;;;;;;5184638;28;20032;-79
2022/05/06 02:21:51;;;;;;;1.52;1.45;;;12.10;99.90;;;;;;5163970;28;20042;-77
2022/05/06 02:24:22;;;;;;;1.13;1.13;;;12.10;99.90;;;;;;5144097;28;20426;-78
2022/05/06 02:26:56;;;;;;;0.80;0.80;;;12.00;99.90;;;;;;5146820;28;20056;-77
2022/05/06 02:29:29;;;;;;;0.70;0.70;;;12.00;99.90;;;;;;5164478;28;20026;-79
2022/05/06 02:34:52;;;;;;;0.63;0.63;;;12.00;99.90;;;;;;5168005;28;20034;-77
2022/05/06 02:37:26;;;;;;;0.75;0.75;;;11.90;99.90;;;;;;5149912;28;20036;-76
2022/05/06 02:39:59;;;;;;;0.70;0.70;;;11.90;99.90;;;;;;5151497;28;20038;-78
2022/05/06 02:42:34;;;;;;;0.60;0.60;;;11.90;99.90;;;;;;5151200;28;20034;-79
2022/05/06 02:45:08;;;;;;;1.67;1.58;;;11.80;99.90;;;;;;5158417;28;20259;-77
2022/05/06 02:47:42;;;;;;;0.80;0.80;;;11.80;99.90;;;;;;5171097;28;20036;-78
2022/05/06 02:50:21;;;;;;;1.25;1.25;;;11.70;99.90;;;;;;5141358;28;20048;-78
2022/05/06 02:52:53;;;;;;;0.70;0.70;;;11.60;99.90;;;;;;5175700;28;20037;-77
2022/05/06 02:55:27;;;;;;;1.20;1.20;;;11.60;99.90;;;;;;5188128;28;20028;-77
2022/05/06 02:57:59;;;;;;;0.73;0.73;;;11.60;99.90;;;;;;5184742;28;20018;-76
2022/05/06 03:00:36;;;;;;;0.80;0.80;;;11.60;99.90;;;;;;5167760;28;20414;-76
2022/05/06 03:03:10;;;;;;;0.70;0.70;;;11.60;99.90;;;;;;5167874;28;20442;-77
2022/05/06 03:05:43;;;;;;;0.90;0.90;;;11.70;99.90;;;;;;5163939;28;20050;-76
2022/05/06 03:08:17;;;;;;;0.80;0.80;;;11.80;99.90;;;;;;5167308;28;20048;-76
2022/05/06 03:10:52;;;;;;;1.15;1.15;;;11.90;99.90;;;;;;5167852;28;20022;-76
2022/05/06 03:13:26;;;;;;;1.20;0.93;;;11.80;99.90;;;;;;5167894;28;20052;-79
2022/05/06 03:16:02;;;;;;;0.98;0.98;;;11.90;99.90;;;;;;5150954;28;20057;-75
2022/05/06 03:18:33;;;;;;;0.77;0.77;;;11.90;99.90;;;;;;5168758;28;20034;-77
2022/05/06 03:21:04;;;;;;;0.80;0.80;;;11.90;99.90;;;;;;5169671;28;20037;-77
2022/05/06 03:23:35;;;;;;;3.38;1.52;;;11.90;99.90;;;;;;5152789;28;20331;-76
2022/05/06 03:26:09;;;;;;;0.80;0.80;;;11.90;99.90;;;;;;5150940;28;20044;-76
2022/05/06 03:28:44;;;;;;;0.88;0.88;;;12.00;99.90;;;;;;5167479;28;20031;-76
2022/05/06 03:31:18;;;;;;;3.22;2.45;;;12.00;99.90;;;;;;5166641;28;20468;-77
2022/05/06 03:33:49;;;;;;;0.93;0.93;;;12.10;99.90;;;;;;5152269;28;20048;-78
2022/05/06 03:36:21;;;;;;;0.82;0.82;;;12.00;99.90;;;;;;5147671;28;20037;-78
2022/05/06 03:38:52;;;;;;;1.95;1.48;;;12.00;99.90;;;;;;5137097;28;20034;-78
2022/05/06 03:41:24;;;;;;;1.02;1.02;;;12.10;99.90;;;;;;5170418;28;20042;-79
2022/05/06 03:43:55;;;;;;;1.45;1.40;;;12.10;99.90;;;;;;5168416;28;20042;-79
2022/05/06 03:46:28;;;;;;;0.70;0.70;;;12.20;99.90;;;;;;5166004;28;20036;-76
2022/05/06 03:49:04;;;;;;;1.30;1.30;;;12.30;99.90;;;;;;5162799;28;20018;-77
2022/05/06 03:51:38;;;;;;;1.02;1.02;;;12.20;99.90;;;;;;5164943;28;20478;-78
2022/05/06 03:54:15;;;;;;;0.82;0.82;;;12.20;99.90;;;;;;5148920;28;20027;-77
2022/05/06 03:56:46;;;;;;;1.60;1.35;;;12.20;99.90;;;;;;5129541;28;20030;-78
2022/05/06 03:59:17;;;;;;;0.98;0.98;;;12.20;99.90;;;;;;5146738;28;20036;-75
2022/05/06 04:01:54;;;;;;;0.70;0.70;;;12.20;99.90;;;;;;5165557;28;20034;-77
2022/05/06 04:04:26;;;;;;;0.80;0.80;;;12.20;99.90;;;;;;5137447;28;20046;-77
2022/05/06 04:07:00;;;;;;;1.27;1.20;;;12.20;99.90;;;;;;5151682;28;20514;-76
2022/05/06 04:09:36;;;;;;;0.80;0.80;;;12.30;99.90;;;;;;5167654;28;20026;-78
2022/05/06 04:12:10;;;;;;;0.60;0.60;;;12.40;99.90;;;;;;5167897;28;20256;-77
2022/05/06 04:14:42;;;;;;;;;;;12.50;99.90;;;;;;5168516;28;20462;-77
2022/05/06 04:17:16;;;;;;;0.60;0.60;;;12.50;99.90;;;;;;5166810;28;19901;-79
2022/05/06 04:25:35;;;;;;;0.60;0.60;;;12.60;99.90;;;;;;5145149;28;20038;-78
2022/05/06 04:28:07;;;;;;;0.63;0.63;;;12.70;99.90;;;;;;5146320;28;20212;-77
2022/05/06 04:30:43;;;;;;;1.23;1.23;;;12.70;99.90;;;;;;5135193;28;20028;-79
2022/05/06 04:33:15;;;;;;;0.90;0.90;;;12.80;99.90;;;;;;5166200;28;20064;-78
2022/05/06 04:35:50;;;;;;;1.10;1.10;;;12.80;99.90;;;;;;5148480;28;20042;-78
2022/05/06 04:38:23;;;;;;;1.00;1.00;;;12.90;99.90;;;;;;5175992;28;20038;-78
2022/05/06 04:41:01;;;;;;;1.20;1.20;;;12.90;99.90;;;;;;5167116;28;20033;-76
2022/05/06 04:43:35;;;;;;;1.38;1.30;;;12.90;99.90;;;;;;5151564;28;20048;-78
2022/05/06 04:46:06;;;;;;;1.15;1.15;;;12.90;99.90;;;;;;5128370;28;20034;-76
2022/05/06 04:48:37;;;;;;;0.73;0.70;;;12.90;99.90;;;;;;5138491;28;20223;-77
2022/05/06 04:51:08;;;;;;;0.70;0.70;;;13.00;99.90;;;;;;5164499;28;20042;-79
2022/05/06 04:53:40;;;;;;;0.73;0.73;;;13.00;99.90;;;;;;5151159;28;20029;-79
2022/05/06 04:56:16;;;;;;;1.15;1.15;;;13.00;99.90;;;;;;5134395;28;20236;-80
2022/05/06 04:58:47;;;;;;;0.80;0.80;;;13.10;99.90;;;;;;5166150;28;20046;-78
2022/05/06 05:01:21;;;;;;;0.85;0.85;;;13.20;99.90;;;;;;5166177;28;20316;-78
2022/05/06 05:03:52;;;;;;;1.20;1.17;;;13.30;99.90;;;;;;5131031;28;20038;-78
2022/05/06 05:06:30;;;;;;;0.93;0.93;;;13.40;99.90;;;;;;5150357;28;20038;-77
2022/05/06 05:09:06;;;;;;;1.00;1.00;;;13.40;99.90;;;;;;5175059;28;20270;-79
2022/05/06 05:11:42;;;;;;;1.27;1.27;;;13.50;99.90;;;;;;5177877;28;20029;-78
2022/05/06 05:14:16;;;;;;;1.73;1.60;;;13.50;99.90;;;;;;5161284;28;20040;-77
2022/05/06 05:16:52;;;;;;;1.23;1.23;;;13.60;99.90;;;;;;5164473;28;20026;-77
2022/05/06 05:19:23;;;;;;;0.70;0.70;;;13.60;99.90;;;;;;5164861;28;20038;-77
2022/05/06 05:21:58;;;;;;;0.68;0.68;;;13.50;99.90;;;;;;5164435;28;20044;-76
2022/05/06 05:24:30;;;;;;;0.93;0.93;;;13.50;99.90;;;;;;5163478;28;20056;-77
2022/05/06 05:27:03;;;;;;;0.60;0.60;;;13.50;99.90;;;;;;5132181;28;20484;-77
2022/05/06 05:29:34;;;;;;;0.70;0.70;;;13.60;99.90;;;;;;5164415;28;20029;-76
2022/05/06 05:32:09;;;;;;;0.77;0.77;;;13.60;99.90;;;;;;5164553;28;20046;-76
2022/05/06 05:34:43;;;;;;;1.02;1.02;;;13.60;99.90;;;;;;5179894;28;20378;-77
2022/05/06 05:37:17;;;;;;;0.98;0.98;;;13.70;99.90;;;;;;5160871;28;20209;-77
2022/05/06 05:39:48;;;;;;;1.23;1.23;;;13.70;99.90;;;;;;5162148;28;20119;-79
2022/05/06 05:42:24;;;;;;;2.50;2.05;;;13.90;99.90;;;;;;5155057;28;20046;-78
2022/05/06 05:50:36;;;;;;;0.85;0.85;;;14.50;99.90;;;;;;5181614;28;20030;-79
2022/05/06 05:53:10;;;;;;;1.05;1.05;;;14.60;99.90;;;;;;5184325;28;20030;-78
2022/05/06 05:55:47;;;;;;;0.82;0.82;;;14.80;99.90;;;;;;5189030;28;20028;-78
2022/05/06 05:58:25;;;;;;;0.82;0.82;;;15.00;99.90;;;;;;5170817;28;20033;-78
2022/05/06 06:00:56;;;;;;;0.98;0.98;;;15.10;99.90;;;;;;5146259;28;20034;-79
2022/05/06 06:03:30;;;;;;;1.02;1.02;;;15.20;99.90;;;;;;5172919;28;20064;-78
2022/05/06 06:06:03;;;;;;;0.80;0.80;;;15.30;99.90;;;;;;5138891;28;20043;-79
2022/05/06 06:08:38;;;;;;;1.38;1.38;;;15.50;99.90;;;;;;5142144;28;20021;-78
2022/05/06 06:11:09;;;;;;;0.68;0.68;;;15.60;99.90;;;;;;5124338;28;20048;-79
2022/05/06 06:13:41;;;;;;;0.90;0.90;;;15.80;99.90;;;;;;5160894;28;20034;-79
2022/05/06 06:16:13;;;;;;;1.40;1.27;;;15.80;99.90;;;;;;5174495;28;20060;-79
2022/05/06 06:18:47;;;;;;;1.05;1.05;;;16.00;99.90;;;;;;5138736;28;20038;-79
2022/05/06 06:21:18;;;;;;;0.80;0.80;;;16.00;99.90;;;;;;5143437;28;20022;-79
2022/05/06 06:23:55;;;;;;;0.93;0.93;;;16.20;99.90;;;;;;5127987;28;20241;-78
2022/05/06 06:26:27;;;;;;;1.98;1.75;;;16.20;99.90;;;;;;5156005;28;20228;-79
2022/05/06 06:29:00;;;;;;;0.95;0.95;;;16.20;99.90;;;;;;5140271;28;20034;-80
2022/05/06 06:31:34;;;;;;;1.58;1.48;;;16.30;99.90;;;;;;5128667;28;20030;-78
2022/05/06 06:34:10;;;;;;;0.88;0.88;;;16.10;99.90;;;;;;5142611;28;20518;-80
2022/05/06 06:36:43;;;;;;;1.50;1.50;;;16.20;99.90;;;;;;5153875;28;20348;-79
2022/05/06 06:39:17;;;;;;;1.30;1.30;;;16.30;99.90;;;;;;5116236;28;20044;-78
2022/05/06 06:41:50;;;;;;;2.28;2.15;;;16.50;99.90;;;;;;5123319;28;20330;-79
2022/05/06 06:44:24;;;;;;;0.90;0.90;;;16.60;99.90;;;;;;5118879;28;20055;-77
2022/05/06 06:46:56;;;;;;;1.00;0.98;;;16.70;99.90;;;;;;5151993;28;20031;-78
2022/05/06 06:49:30;;;;;;;0.70;0.70;;;16.80;99.90;;;;;;5149521;28;20042;-79
2022/05/06 06:52:04;;;;;;;1.35;1.35;;;16.90;99.90;;;;;;5117124;28;20030;-81
2022/05/06 06:54:35;;;;;;;1.13;1.13;;;17.10;99.90;;;;;;5157755;28;20030;-78
2022/05/06 06:57:07;;;;;;;1.35;1.35;;;17.10;99.90;;;;;;5121901;28;20038;-78
2022/05/06 06:59:38;;;;;;;1.05;1.05;;;17.10;99.90;;;;;;5131580;28;20048;-79
2022/05/06 07:02:09;;;;;;;0.68;0.68;;;17.00;99.90;;;;;;5137469;28;20055;-78
2022/05/06 07:04:45;;;;;;;1.05;1.05;;;17.00;99.90;;;;;;5116843;28;20117;-79
2022/05/06 07:13:13;;;;;;;1.10;1.10;;;17.40;99.90;;;;;;5161702;28;20323;-77
2022/05/06 07:15:47;;;;;;;1.00;1.00;;;17.50;99.90;;;;;;5158601;28;20030;-77
2022/05/06 07:18:18;;;;;;;1.48;1.38;;;17.60;99.90;;;;;;5128081;28;20022;-76
2022/05/06 07:20:49;;;;;;;0.90;0.90;;;17.70;99.90;;;;;;5145903;28;20040;-77
2022/05/06 07:23:26;;;;;;;1.02;1.02;;;18.00;99.90;;;;;;5145678;28;20163;-77
2022/05/06 07:25:57;;;;;;;1.52;1.42;;;17.90;99.90;;;;;;5143393;28;20026;-76
2022/05/06 07:28:31;;;;;;;0.70;0.70;;;18.20;99.90;;;;;;5145998;28;20022;-79
2022/05/06 07:31:12;;;;;;;1.58;1.40;;;18.40;99.90;;;;;;5160857;28;20365;-77
2022/05/06 07:33:43;;;;;;;1.33;1.33;;;18.50;99.90;;;;;;5151532;28;20255;-76
2022/05/06 07:36:15;;;;;;;1.92;1.83;;;18.60;99.90;;;;;;5146544;28;20220;-77
2022/05/06 07:38:46;;;;;;;0.40;0.40;;;18.50;99.90;;;;;;5146756;28;20034;-76
2022/05/06 07:41:17;;;;;;;0.70;0.70;;;18.60;99.90;;;;;;5110844;28;20374;-77
2022/05/06 07:43:49;;;;;;;0.77;0.77;;;18.70;99.90;;;;;;5142644;28;20026;-79
2022/05/06 07:46:21;;;;;;;1.23;0.85;;;18.70;99.90;;;;;;5146702;28;20042;-77
2022/05/06 07:48:52;;;;;;;0.68;0.68;;;18.80;99.90;;;;;;5163168;28;20030;-78
2022/05/06 07:51:24;;;;;;;0.90;0.90;;;18.90;99.90;;;;;;5128560;28;20026;-76
2022/05/06 07:53:56;;;;;;;0.88;0.88;;;19.00;99.90;;;;;;5144733;28;20038;-76
2022/05/06 07:56:30;;;;;;;0.85;0.85;;;19.30;99.90;;;;;;5152228;28;20030;-78
2022/05/06 07:59:04;;;;;;;2.05;1.95;;;19.60;99.90;;;;;;5129495;28;20033;-79
2022/05/06 08:04:35;;;;;;;0.57;0.57;;;19.50;99.90;;;;;;5152635;28;20052;-78
2022/05/06 08:07:08;;;;;;;1.60;1.50;;;19.40;99.90;;;;;;5152744;28;20121;-78
2022/05/06 08:09:42;;;;;;;1.15;1.15;;;19.70;99.90;;;;;;5143182;28;20036;-79
2022/05/06 08:12:14;;;;;;;0.60;0.60;;;20.00;99.90;;;;;;5178210;28;20326;-78
2022/05/06 08:14:45;;;;;;;1.00;0.95;;;19.80;99.90;;;;;;5161344;28;20034;-78
2022/05/06 08:17:16;;;;;;;2.58;2.25;;;19.60;99.90;;;;;;5128983;28;20042;-79
2022/05/06 08:19:47;;;;;;;1.23;1.10;;;19.70;99.90;;;;;;5145451;28;20034;-79
2022/05/06 08:22:19;;;;;;;0.75;0.75;;;19.50;99.90;;;;;;5147839;28;20030;-79
2022/05/06 08:24:51;;;;;;;1.13;1.13;;;19.50;99.90;;;;;;5148666;28;20060;-78
2022/05/06 08:27:22;;;;;;;0.93;0.85;;;19.40;99.90;;;;;;5146779;28;20294;-79
2022/05/06 08:29:54;;;;;;;1.58;1.52;;;19.20;99.90;;;;;;5143968;28;20038;-78
2022/05/06 08:32:27;;;;;;;0.68;0.68;;;19.20;99.90;;;;;;5143505;28;20042;-79
2022/05/06 08:34:59;;;;;;;0.57;0.57;;;19.20;99.90;;;;;;5148237;28;20369;-79
2022/05/06 08:37:39;;;;;;;1.17;1.17;;;19.60;99.90;;;;;;5145151;28;20380;-78
2022/05/06 08:40:22;;;;;;;8.90;2.80;;;19.30;99.90;;;;;;5136075;28;20035;-79
2022/05/06 08:42:54;;;;;;;1.63;1.33;;;19.20;99.90;;;;;;5138420;28;20061;-79
2022/05/06 08:51:07;;;;;;;2.60;2.05;;;18.20;99.90;;;;;;5154599;28;20202;-77
2022/05/06 08:53:42;;;;;;;0.88;0.88;;;18.20;99.90;;;;;;5139266;28;20486;-78
2022/05/06 08:56:13;;;;;;;2.03;1.77;;;18.40;99.90;;;;;;5144455;28;20137;-80
2022/05/06 08:58:48;;;;;;;1.00;1.00;;;18.80;99.90;;;;;;5152784;28;20048;-80
2022/05/06 09:01:27;;;;;;;1.13;1.13;;;19.20;99.90;;;;;;5141964;28;20049;-80
2022/05/06 09:03:58;;;;;;;0.80;0.80;;;19.50;99.90;;;;;;5134186;28;20045;-79
2022/05/06 09:06:31;;;;;;;0.95;0.95;;;19.70;99.90;;;;;;5163205;28;20053;-79
2022/05/06 09:09:03;;;;;;;0.93;0.93;;;19.60;99.90;;;;;;5166890;28;20229;-79
2022/05/06 09:17:25;;;;;;;1.27;1.27;;;20.00;99.90;;;;;;5162701;28;20052;-78
2022/05/06 09:19:56;;;;;;;0.55;0.55;;;20.00;99.90;;;;;;5173103;28;20025;-78
2022/05/06 09:22:28;;;;;;;0.80;0.80;;;20.20;99.90;;;;;;5141378;28;20034;-79
2022/05/06 09:24:59;;;;;;;0.68;0.68;;;20.60;99.90;;;;;;5180853;28;20190;-79
2022/05/06 09:27:35;;;;;;;0.85;0.85;;;20.80;99.90;;;;;;5160831;28;20026;-80
2022/05/06 09:30:10;;;;;;;0.93;0.93;;;21.20;99.90;;;;;;5127957;28;20117;-79
2022/05/06 09:32:41;;;;;;;0.63;0.63;;;21.20;99.90;;;;;;5144768;28;20225;-79
2022/05/06 09:35:16;;;;;;;0.73;0.73;;;21.20;99.90;;;;;;5165167;28;20285;-80
2022/05/06 09:37:49;;;;;;;0.82;0.82;;;21.10;99.90;;;;;;5181199;28;20093;-80
2022/05/06 09:40:27;;;;;;;1.02;0.90;;;21.20;99.90;;;;;;5180296;28;20297;-79
2022/05/06 09:43:00;;;;;;;1.00;1.00;;;21.50;99.90;;;;;;5162941;28;20041;-80
2022/05/06 09:45:43;;;;;;;0.65;0.65;;;21.60;99.90;;;;;;5181442;28;20291;-79
2022/05/06 09:48:15;;;;;;;1.10;1.10;;;21.30;99.90;;;;;;5182395;28;20052;-79
2022/05/06 09:50:49;;;;;;;1.20;1.20;;;21.20;99.90;;;;;;5160327;28;20284;-79
2022/05/06 09:53:26;;;;;;;1.63;0.77;;;21.40;99.90;;;;;;5173428;28;20026;-78
2022/05/06 09:56:06;;;;;;;0.40;0.40;;;21.80;99.90;;;;;;5162835;28;20327;-80
2022/05/06 09:58:38;;;;;;;0.95;0.95;;;21.40;99.90;;;;;;5164083;28;20228;-80
2022/05/06 10:01:09;;;;;;;0.98;0.98;;;21.70;99.90;;;;;;5162685;28;20258;-80
2022/05/06 10:03:41;;;;;;;0.98;0.98;;;21.50;99.90;;;;;;5144306;28;20973;-79
2022/05/06 10:06:14;;;;;;;1.38;1.33;;;21.70;99.90;;;;;;5158622;28;20049;-79
2022/05/06 10:08:49;;;;;;;0.80;0.80;;;22.40;99.90;;;;;;5139326;28;20042;-79
2022/05/06 10:11:28;;;;;;;1.13;0.93;;;22.10;99.90;;;;;;5163047;28;20036;-78
2022/05/06 10:14:05;;;;;;;3.00;1.20;;;22.20;99.90;;;;;;5179323;28;20030;-78
2022/05/06 10:16:39;;;;;;;0.85;0.85;;;22.40;99.90;;;;;;5161406;28;20141;-76
2022/05/06 10:19:45;;;;;;;1.30;1.20;;;22.60;99.90;;;;;;5180153;28;20040;-77
2022/05/06 10:22:20;;;;;;;1.08;0.75;;;23.50;99.90;;;;;;5154344;28;20190;-77
2022/05/06 10:24:53;;;;;;;0.60;0.60;;;24.00;99.90;;;;;;5168256;28;20033;-78
2022/05/06 10:33:24;;;;;;;0.75;0.75;;;23.90;99.90;;;;;;5153896;28;20042;-78
2022/05/06 10:35:58;;;;;;;1.10;1.10;;;23.80;99.90;;;;;;5180140;28;20025;-80
2022/05/06 10:38:29;;;;;;;1.10;1.10;;;22.50;99.90;;;;;;5171469;28;20028;-79
2022/05/06 10:41:02;;;;;;;0.93;0.93;;;22.60;99.90;;;;;;5164448;28;20064;-78
2022/05/06 10:43:40;;;;;;;1.05;1.05;;;23.00;99.90;;;;;;5179965;28;20030;-79
2022/05/06 10:46:32;;;;;;;0.38;0.38;;;22.00;99.90;;;;;;5173745;28;20048;-78
2022/05/06 10:49:34;;;;;;;0.80;0.80;;;21.30;99.90;;;;;;5163881;28;20034;-77
2022/05/06 10:52:22;;;;;;;1.10;1.10;;;21.80;99.90;;;;;;5175534;28;20188;-76
2022/05/06 10:54:59;;;;;;;0.73;0.73;;;22.30;99.90;;;;;;5168024;28;20061;-78
2022/05/06 10:57:44;;;;;;;1.58;1.48;;;21.40;99.90;;;;;;5183679;28;20048;-77
2022/05/06 11:00:22;;;;;;;0.60;0.60;;;20.70;99.90;;;;;;5186506;28;20021;-78
2022/05/06 11:02:53;;;;;;;0.98;0.98;;;19.90;99.90;;;;;;5190279;28;20036;-79
2022/05/06 11:05:29;;;;;;;1.77;1.67;;;19.60;99.90;;;;;;5159925;28;20303;-77
2022/05/06 11:08:02;;;;;;;0.43;0.43;;;19.50;99.90;;;;;;5146187;28;20231;-81
2022/05/06 11:10:34;;;;;;;1.15;1.15;;;19.70;99.90;;;;;;5154497;28;20316;-77
2022/05/06 11:13:14;;;;;;;1.45;1.38;;;19.70;99.90;;;;;;5164588;28;20052;-77
2022/05/06 11:15:48;;;;;;;0.85;0.85;;;20.10;99.90;;;;;;5176111;28;20294;-77
2022/05/06 11:18:22;;;;;;;0.60;0.60;;;20.10;99.90;;;;;;5164657;28;20018;-77
2022/05/06 11:20:53;;;;;;;;;;;20.60;99.90;;;;;;5155964;28;20044;-76
2022/05/06 11:23:29;;;;;;;1.25;1.25;;;21.10;99.90;;;;;;5161222;28;20211;-78
2022/05/06 11:26:05;;;;;;;2.45;0.95;;;21.50;99.90;;;;;;5178135;28;20033;-78
2022/05/06 11:28:37;;;;;;;0.60;0.60;;;21.70;99.90;;;;;;5144219;28;20068;-78
2022/05/06 11:31:11;;;;;;;1.30;1.30;;;21.30;99.90;;;;;;5171700;28;20327;-78
2022/05/06 11:33:44;;;;;;;0.90;0.90;;;21.30;99.90;;;;;;5171971;28;20052;-77
2022/05/06 11:36:15;;;;;;;0.68;0.68;;;20.90;99.90;;;;;;5189159;28;20037;-78
2022/05/06 11:38:49;;;;;;;1.67;1.58;;;20.50;99.90;;;;;;5187605;28;20022;-77
2022/05/06 11:41:23;;;;;;;0.50;0.50;;;19.80;99.90;;;;;;5151186;28;20053;-75
2022/05/06 11:44:07;;;;;;;1.05;1.05;;;19.90;99.90;;;;;;5182062;28;20037;-79
2022/05/06 11:49:51;;;;;;;0.80;0.80;;;19.70;99.90;;;;;;5183327;28;20099;-77
2022/05/06 11:52:22;;;;;;;1.13;1.13;;;19.90;99.90;;;;;;5168900;28;20028;-77
2022/05/06 11:54:53;;;;;;;0.88;0.88;;;19.70;99.90;;;;;;5178788;28;20078;-77
2022/05/06 11:57:26;;;;;;;0.93;0.93;;;19.50;99.90;;;;;;5156459;28;20045;-76
2022/05/06 12:00:11;;;;;;;0.70;0.70;;;19.80;99.90;;;;;;5164239;28;20267;-76
2022/05/06 12:02:55;;;;;;;0.82;0.82;;;19.40;99.90;;;;;;5160773;28;20348;-75
2022/05/06 12:05:29;;;;;;;0.85;0.85;;;19.30;99.90;;;;;;5152293;28;20058;-79
2022/05/06 12:08:03;;;;;;;0.75;0.75;;;19.70;99.90;;;;;;5152840;28;20243;-77
2022/05/06 12:10:39;;;;;;;;;;;20.00;99.90;;;;;;5183875;28;20030;-78
2022/05/06 12:13:10;;;;;;;0.65;0.65;;;20.40;99.90;;;;;;5184816;28;20126;-76
2022/05/06 12:15:43;;;;;;;1.48;1.48;;;19.80;99.90;;;;;;5168112;28;20034;-77
2022/05/06 12:18:24;;;;;;;0.95;0.95;;;19.60;99.90;;;;;;5167903;28;20029;-77
2022/05/06 12:20:55;;;;;;;0.93;0.93;;;19.90;99.90;;;;;;5168285;28;20046;-77
2022/05/06 12:23:30;;;;;;;1.88;1.77;;;19.90;99.90;;;;;;5158315;28;20068;-77
2022/05/06 12:26:08;;;;;;;;;;;19.70;99.90;;;;;;5180498;28;20038;-76
2022/05/06 12:28:47;;;;;;;0.55;0.55;;;19.50;99.90;;;;;;5184972;28;20111;-75
2022/05/06 12:31:28;;;;;;;1.02;1.02;;;19.40;99.90;;;;;;5180013;28;20038;-76
2022/05/06 12:34:09;;;;;;;0.60;0.60;;;18.90;99.90;;;;;;5176580;28;20048;-78
2022/05/06 12:36:40;;;;;;;1.30;1.30;;;18.80;99.90;;;;;;5159721;28;20026;-76
2022/05/06 12:39:26;;;;;;;0.70;0.70;;;18.70;99.90;;;;;;5163178;28;20038;-75
2022/05/06 12:42:10;;;;;;;0.95;0.95;;;18.70;99.90;;;;;;5160503;28;20037;-80
2022/05/06 12:44:42;;;;;;;1.10;1.10;;;18.60;99.90;;;;;;5163432;28;20033;-77
2022/05/06 12:50:15;;;;;;;1.02;1.02;;;18.40;99.90;;;;;;5165419;28;20037;-78
2022/05/06 12:52:50;;;;;;;0.90;0.90;;;18.10;99.90;;;;;;5162795;28;20040;-79
2022/05/06 12:55:24;;;;;;;1.00;1.00;;;17.70;99.90;;;;;;5183538;28;20044;-76
2022/05/06 12:57:57;;;;;;;1.20;1.20;;;17.50;99.90;;;;;;5187614;28;20037;-78
2022/05/06 13:00:28;;;;;;;1.08;1.08;;;17.20;99.90;;;;;;5166288;28;20679;-77
2022/05/06 13:03:00;;;;;;;0.70;0.70;;;17.20;99.90;;;;;;5179660;28;20029;-77
2022/05/06 13:05:35;;;;;;;1.85;1.52;;;16.90;99.90;;;;;;5173643;28;20161;-76
2022/05/06 13:08:07;;;;;;;1.73;1.63;;;16.90;99.90;;;;;;5165939;28;20021;-78
2022/05/06 13:10:38;;;;;;;1.52;1.48;;;16.90;99.90;;;;;;5181350;28;20042;-77
2022/05/06 13:13:15;;;;;;;0.90;0.90;;;16.90;99.90;;;;;;5144411;28;20038;-76
2022/05/06 13:15:46;;;;;;;1.90;1.80;;;16.90;99.90;;;;;;5150826;28;20061;-80
2022/05/06 13:18:18;;;;;;;3.10;2.83;;;16.90;99.90;;;;;;5165320;28;20040;-78
2022/05/06 13:20:50;;;;;;;1.90;1.80;;;17.00;99.90;;;;;;5154948;28;20506;-77
2022/05/06 13:23:23;;;;;;;2.00;1.90;;;17.00;99.90;;;;;;5150667;28;20041;-77
2022/05/06 13:25:58;;;;;;;2.47;2.28;;;17.40;99.90;;;;;;5175219;28;20348;-78
2022/05/06 13:28:32;;;;;;;1.52;1.50;;;17.30;99.90;;;;;;5176920;28;20049;-78
2022/05/06 13:31:09;;;;;;;1.02;1.02;;;17.00;99.90;;;;;;5167074;28;20040;-79
2022/05/06 13:33:47;;;;;;;2.42;2.33;;;17.40;99.90;;;;;;5184760;28;20018;-77
2022/05/06 13:36:21;;;;;;;1.83;1.73;;;17.30;99.90;;;;;;5162813;28;20308;-79
2022/05/06 13:38:52;;;;;;;1.85;1.75;;;17.50;99.90;;;;;;5162807;28;20052;-80
2022/05/06 13:41:23;;;;;;;2.33;2.22;;;17.80;99.90;;;;;;5178285;28;20038;-77
2022/05/06 13:43:55;;;;;;;1.33;1.33;;;17.90;99.90;;;;;;5162890;28;20045;-77
2022/05/06 13:46:34;;;;;;;1.02;1.02;;;18.20;99.90;;;;;;5156967;28;20037;-79
2022/05/06 13:49:10;;;;;;;1.63;1.58;;;18.30;99.90;;;;;;5167769;28;20036;-77
2022/05/06 13:51:43;;;;;;;1.63;1.52;;;18.40;99.90;;;;;;5147343;28;20048;-78
2022/05/06 13:54:14;;;;;;;1.52;1.48;;;18.50;99.90;;;;;;5180868;28;20033;-76
2022/05/06 13:59:35;;;;;;;2.53;2.33;;;18.40;99.90;;;;;;5182847;28;20038;-76
2022/05/06 14:02:09;;;;;;;1.02;1.00;;;18.70;99.90;;;;;;5163609;28;20033;-81
2022/05/06 14:04:41;;;;;;;1.17;1.17;;;18.80;99.90;;;;;;5153188;28;20054;-77
2022/05/06 14:07:12;;;;;;;1.17;1.17;;;18.90;99.90;;;;;;5178934;28;20044;-79
2022/05/06 14:09:47;;;;;;;0.82;0.82;;;18.80;99.90;;;;;;5158738;28;20438;-76
2022/05/06 14:12:21;;;;;;;0.95;0.95;;;18.80;99.90;;;;;;5160309;28;20052;-77
2022/05/06 14:14:55;;;;;;;1.05;1.05;;;18.70;99.90;;;;;;5177680;28;20038;-76
2022/05/06 14:17:27;;;;;;;1.55;1.48;;;18.80;99.90;;;;;;5161289;28;20023;-76